Time,TemperatureF,DewpointF,PressureIn,WindDirection,WindDirectionDegrees,WindSpeedMPH,WindSpeedGustMPH,Humidity,HourlyPrecipIn,Conditions,Clouds,dailyrainin,SoftwareType,DateUTC
2013-12-22 00:03:00,31.8,28.4,30.56,SE,135,1.2,1.2,87,0.00,OVC,BKN,0.00,WeatherDisplay:10.37,2013-12-21 23:03:00,
2013-12-22 00:08:00,32.0,28.3,30.56,SE,135,1.6,1.6,86,0.00,OVC,BKN,0.00,WeatherDisplay:10.37,2013-12-21 23:08:00,
2013-12-22 00:13:00,32.0,28.3,30.56,SE,135,2.3,0.0,86,0.00,OVC,BKN,0.00,WeatherDisplay:10.37,2013-12-21 23:13:00,
2013-12-22 00:18:00,32.0,28.3,30.56,SE,135,2.3,2.3,86,0.00,OVC,BKN,0.00,WeatherDisplay:10.37,2013-12-21 23:18:00,
2013-12-22 00:23:00,32.2,28.5,30.55,East,90,3.5,3.5,86,0.00,OVC,BKN,0.00,WeatherDisplay:10.37,2013-12-21 23:23:00,
2013-12-22 00:28:00,32.2,28.5,30.55,East,90,3.8,3.8,86,0.00,OVC,BKN,0.00,WeatherDisplay:10.37,2013-12-21 23:28:00,
2013-12-22 00:33:00,32.2,28.5,30.55,SE,135,3.5,3.5,86,0.00,OVC,BKN,0.00,WeatherDisplay:10.37,2013-12-21 23:33:00,
2013-12-22 00:38:00,32.4,28.6,30.55,SE,135,5.8,5.8,86,0.00,OVC,BKN,0.00,WeatherDisplay:10.37,2013-12-21 23:38:00,
2013-12-22 00:43:00,32.4,28.9,30.55,East,90,5.8,5.8,87,0.00,OVC,BKN,0.00,WeatherDisplay:10.37,2013-12-21 23:43:00,
2013-12-22 00:48:00,32.5,29.1,30.55,SE,135,5.8,5.8,87,0.00,OVC,BKN,0.00,WeatherDisplay:10.37,2013-12-21 23:48:00,
2013-12-22 00:53:00,32.5,29.1,30.54,SE,135,5.8,5.8,87,0.00,OVC,BKN,0.00,WeatherDisplay:10.37,2013-12-21 23:53:00,
2013-12-22 00:58:00,32.5,29.1,30.54,SSE,158,5.8,5.8,87,0.00,OVC,BKN,0.00,WeatherDisplay:10.37,2013-12-21 23:58:00,
2013-12-22 01:03:00,32.5,29.1,30.54,SSE,158,5.8,5.8,87,0.00,OVC,BKN,0.00,WeatherDisplay:10.37,2013-12-22 00:03:00,
2013-12-22 01:08:00,32.5,29.1,30.54,ESE,112,5.8,5.8,87,0.00,OVC,BKN,0.00,WeatherDisplay:10.37,2013-12-22 00:08:00,
2013-12-22 01:13:00,32.5,29.1,30.54,East,90,4.6,4.6,87,0.00,OVC,BKN,0.00,WeatherDisplay:10.37,2013-12-22 00:13:00,
2013-12-22 01:18:00,32.5,29.1,30.53,South,180,5.8,5.8,87,0.00,OVC,BKN,0.00,WeatherDisplay:10.37,2013-12-22 00:18:00,
2013-12-22 01:23:00,32.5,29.1,30.53,SE,135,4.6,4.6,87,0.00,OVC,BKN,0.00,WeatherDisplay:10.37,2013-12-22 00:23:00,
2013-12-22 01:28:00,32.5,29.1,30.53,SE,135,5.8,5.8,87,0.00,OVC,BKN,0.00,WeatherDisplay:10.37,2013-12-22 00:28:00,
2013-12-22 01:33:00,32.5,29.1,30.53,SE,135,5.4,5.4,87,0.00,OVC,BKN,0.00,WeatherDisplay:10.37,2013-12-22 00:33:00,
2013-12-22 01:38:00,32.5,29.1,30.54,SE,135,4.6,4.6,87,0.00,OVC,BKN,0.00,WeatherDisplay:10.37,2013-12-22 00:38:00,
2013-12-22 01:43:00,32.5,29.1,30.53,ESE,112,3.5,3.5,87,0.00,OVC,BKN,0.00,WeatherDisplay:10.37,2013-12-22 00:43:00,
2013-12-22 01:49:00,32.5,29.1,30.54,SE,135,3.8,3.8,87,0.00,OVC,BKN,0.00,WeatherDisplay:10.37,2013-12-22 00:49:00,
2013-12-22 01:54:00,32.5,29.1,30.54,SE,135,3.5,3.5,87,0.00,OVC,BKN,0.00,WeatherDisplay:10.37,2013-12-22 00:54:00,
2013-12-22 01:59:00,32.5,29.1,30.53,SE,135,3.5,3.5,87,0.00,OVC,BKN,0.00,WeatherDisplay:10.37,2013-12-22 00:59:00,
2013-12-22 02:04:00,32.5,29.1,30.54,SE,135,1.6,1.6,87,0.00,OVC,BKN,0.00,WeatherDisplay:10.37,2013-12-22 01:04:00,
2013-12-22 02:09:00,32.5,29.1,30.53,ESE,112,3.5,3.5,87,0.00,OVC,BKN,0.00,WeatherDisplay:10.37,2013-12-22 01:09:00,
2013-12-22 02:14:00,32.5,29.1,30.53,East,90,3.5,3.5,87,0.00,OVC,BKN,0.00,WeatherDisplay:10.37,2013-12-22 01:14:00,
2013-12-22 02:19:00,32.5,29.1,30.52,East,90,3.5,3.5,87,0.00,OVC,BKN,0.00,WeatherDisplay:10.37,2013-12-22 01:19:00,
2013-12-22 02:24:00,32.5,29.1,30.53,NE,45,3.5,3.5,87,0.00,OVC,BKN,0.00,WeatherDisplay:10.37,2013-12-22 01:24:00,
2013-12-22 02:29:00,32.5,29.1,30.53,East,90,4.6,4.6,87,0.00,OVC,BKN,0.00,WeatherDisplay:10.37,2013-12-22 01:29:00,
2013-12-22 02:34:00,32.5,29.1,30.53,SE,135,4.6,4.6,87,0.00,OVC,BKN,0.00,WeatherDisplay:10.37,2013-12-22 01:34:00,
2013-12-22 02:39:00,32.5,29.1,30.53,East,90,3.5,3.5,87,0.00,OVC,BKN,0.00,WeatherDisplay:10.37,2013-12-22 01:39:00,
2013-12-22 02:44:00,32.5,29.1,30.53,SE,135,3.5,3.5,87,0.00,OVC,BKN,0.00,WeatherDisplay:10.37,2013-12-22 01:44:00,
2013-12-22 02:49:00,32.5,29.1,30.53,SE,135,3.5,3.5,87,0.00,OVC,BKN,0.00,WeatherDisplay:10.37,2013-12-22 01:49:00,
2013-12-22 02:54:00,32.5,29.1,30.53,East,90,3.8,3.8,87,0.00,OVC,BKN,0.00,WeatherDisplay:10.37,2013-12-22 01:54:00,
2013-12-22 02:59:00,32.5,29.1,30.52,SE,135,3.5,3.5,87,0.00,OVC,BKN,0.00,WeatherDisplay:10.37,2013-12-22 01:59:00,
2013-12-22 03:04:00,32.5,29.1,30.53,East,90,1.6,1.6,87,0.00,OVC,BKN,0.00,WeatherDisplay:10.37,2013-12-22 02:04:00,
2013-12-22 03:09:00,32.5,29.1,30.52,SE,135,3.5,3.5,87,0.00,OVC,BKN,0.00,WeatherDisplay:10.37,2013-12-22 02:09:00,
2013-12-22 03:14:00,32.5,29.4,30.52,East,90,3.8,3.8,88,0.00,OVC,BKN,0.00,WeatherDisplay:10.37,2013-12-22 02:14:00,
2013-12-22 03:19:00,32.5,29.4,30.52,NE,45,3.5,3.5,88,0.00,OVC,BKN,0.00,WeatherDisplay:10.37,2013-12-22 02:19:00,
2013-12-22 03:24:00,32.5,29.4,30.52,SE,135,3.5,3.5,88,0.00,OVC,BKN,0.00,WeatherDisplay:10.37,2013-12-22 02:24:00,
2013-12-22 03:29:00,32.5,29.4,30.52,SE,135,4.6,4.6,88,0.00,OVC,BKN,0.00,WeatherDisplay:10.37,2013-12-22 02:29:00,
2013-12-22 03:34:00,32.5,29.4,30.52,SE,135,3.5,3.5,88,0.00,OVC,BKN,0.00,WeatherDisplay:10.37,2013-12-22 02:34:00,
2013-12-22 03:39:00,32.5,29.4,30.52,SE,135,3.5,3.5,88,0.00,OVC,BKN,0.00,WeatherDisplay:10.37,2013-12-22 02:39:00,
2013-12-22 03:44:00,32.5,29.4,30.52,SE,135,4.6,4.6,88,0.00,OVC,BKN,0.00,WeatherDisplay:10.37,2013-12-22 02:44:00,
2013-12-22 03:49:00,32.5,29.4,30.52,SE,135,4.6,4.6,88,0.00,OVC,BKN,0.00,WeatherDisplay:10.37,2013-12-22 02:49:00,
2013-12-22 03:54:00,32.5,29.4,30.52,ESE,112,4.6,4.6,88,0.00,OVC,BKN,0.00,WeatherDisplay:10.37,2013-12-22 02:54:00,
2013-12-22 03:59:00,32.4,29.2,30.51,SE,135,4.5,4.5,88,0.00,OVC,BKN,0.00,WeatherDisplay:10.37,2013-12-22 02:59:00,
2013-12-22 04:04:00,32.4,29.2,30.51,SE,135,4.6,4.6,88,0.00,OVC,BKN,0.00,WeatherDisplay:10.37,2013-12-22 03:04:00,
2013-12-22 04:09:00,32.4,29.2,30.51,SE,135,5.8,5.8,88,0.00,OVC,BKN,0.00,WeatherDisplay:10.37,2013-12-22 03:09:00,
2013-12-22 04:14:00,32.4,29.2,30.51,South,180,5.8,5.8,88,0.00,OVC,BKN,0.00,WeatherDisplay:10.37,2013-12-22 03:14:00,
2013-12-22 04:19:00,32.4,29.2,30.51,ESE,112,3.8,3.8,88,0.00,OVC,BKN,0.00,WeatherDisplay:10.37,2013-12-22 03:19:00,
2013-12-22 04:24:00,32.4,29.2,30.50,East,90,4.6,4.6,88,0.00,OVC,BKN,0.00,WeatherDisplay:10.37,2013-12-22 03:24:00,
2013-12-22 04:29:00,32.4,29.2,30.50,SE,135,5.8,5.8,88,0.00,OVC,BKN,0.00,WeatherDisplay:10.37,2013-12-22 03:29:00,
2013-12-22 04:34:00,32.4,29.2,30.50,South,180,5.4,5.4,88,0.00,OVC,BKN,0.00,WeatherDisplay:10.37,2013-12-22 03:34:00,
2013-12-22 04:39:00,32.4,29.2,30.50,SE,135,5.8,5.8,88,0.00,OVC,BKN,0.00,WeatherDisplay:10.37,2013-12-22 03:39:00,
2013-12-22 04:44:00,32.4,29.2,30.50,SE,135,5.8,5.8,88,0.00,OVC,BKN,0.00,WeatherDisplay:10.37,2013-12-22 03:44:00,
2013-12-22 04:49:00,32.4,29.2,30.50,South,180,5.8,5.8,88,0.00,OVC,BKN,0.00,WeatherDisplay:10.37,2013-12-22 03:49:00,
2013-12-22 04:54:00,32.4,29.2,30.50,East,90,4.6,4.6,88,0.00,OVC,BKN,0.00,WeatherDisplay:10.37,2013-12-22 03:54:00,
2013-12-22 04:59:00,32.4,29.2,30.50,East,90,3.5,3.5,88,0.00,OVC,BKN,0.00,WeatherDisplay:10.37,2013-12-22 03:59:00,
2013-12-22 05:04:00,32.4,29.2,30.49,SE,135,3.8,3.8,88,0.00,OVC,BKN,0.00,WeatherDisplay:10.37,2013-12-22 04:04:00,
2013-12-22 05:09:00,32.4,29.2,30.50,East,90,3.5,3.5,88,0.00,OVC,BKN,0.00,WeatherDisplay:10.37,2013-12-22 04:09:00,
2013-12-22 05:14:00,32.4,29.2,30.50,SE,135,3.5,3.5,88,0.00,OVC,BKN,0.00,WeatherDisplay:10.37,2013-12-22 04:14:00,
2013-12-22 05:19:00,32.4,29.2,30.50,South,180,3.5,3.5,88,0.00,OVC,BKN,0.00,WeatherDisplay:10.37,2013-12-22 04:19:00,
2013-12-22 05:24:00,32.4,29.2,30.50,East,90,4.5,4.5,88,0.00,OVC,BKN,0.00,WeatherDisplay:10.37,2013-12-22 04:24:00,
2013-12-22 05:29:00,32.4,28.9,30.50,NE,45,3.5,3.5,87,0.00,OVC,BKN,0.00,WeatherDisplay:10.37,2013-12-22 04:29:00,
2013-12-22 05:34:00,32.4,28.9,30.50,NE,45,2.3,0.0,87,0.00,OVC,BKN,0.00,WeatherDisplay:10.37,2013-12-22 04:34:00,
2013-12-22 05:39:00,32.4,28.9,30.50,East,90,3.5,3.5,87,0.00,OVC,BKN,0.00,WeatherDisplay:10.37,2013-12-22 04:39:00,
2013-12-22 05:44:00,32.4,28.9,30.49,East,90,1.2,0.0,87,0.00,OVC,BKN,0.00,WeatherDisplay:10.37,2013-12-22 04:44:00,
2013-12-22 05:49:00,32.4,28.9,30.50,East,90,2.3,2.3,87,0.00,OVC,BKN,0.00,WeatherDisplay:10.37,2013-12-22 04:49:00,
2013-12-22 05:54:00,32.4,28.9,30.49,SE,135,3.5,3.5,87,0.00,OVC,BKN,0.00,WeatherDisplay:10.37,2013-12-22 04:54:00,
2013-12-22 05:59:00,32.4,28.9,30.49,ESE,112,3.5,3.5,87,0.00,OVC,BKN,0.00,WeatherDisplay:10.37,2013-12-22 04:59:00,
2013-12-22 06:01:00,32.4,28.9,30.49,SE,135,3.5,3.5,87,0.00,OVC,BKN,0.00,WeatherDisplay:10.37,2013-12-22 05:01:00,
2013-12-22 06:02:00,32.4,28.9,30.49,SE,135,2.3,2.3,87,0.00,OVC,BKN,0.00,WeatherDisplay:10.37,2013-12-22 05:02:00,
2013-12-22 06:03:00,32.4,28.9,30.49,SE,135,2.3,2.3,87,0.00,OVC,BKN,0.00,WeatherDisplay:10.37,2013-12-22 05:03:00,
2013-12-22 06:06:00,32.4,28.9,30.49,SE,135,3.1,3.1,87,0.00,OVC,BKN,0.00,WeatherDisplay:10.37,2013-12-22 05:06:00,
2013-12-22 06:11:00,32.4,28.9,30.49,SE,135,5.8,5.8,87,0.00,OVC,BKN,0.00,WeatherDisplay:10.37,2013-12-22 05:11:00,
2013-12-22 06:12:00,32.4,28.9,30.49,SE,135,5.8,5.8,87,0.00,OVC,BKN,0.00,WeatherDisplay:10.37,2013-12-22 05:12:00,
2013-12-22 06:17:00,32.2,28.7,30.49,East,90,5.8,5.8,87,0.00,OVC,BKN,0.00,WeatherDisplay:10.37,2013-12-22 05:17:00,
2013-12-22 06:22:00,32.2,28.7,30.49,SE,135,5.8,5.8,87,0.00,OVC,BKN,0.00,WeatherDisplay:10.37,2013-12-22 05:22:00,
2013-12-22 06:27:00,32.2,28.7,30.48,East,90,5.4,5.4,87,0.00,OVC,BKN,0.00,WeatherDisplay:10.37,2013-12-22 05:27:00,
2013-12-22 06:32:00,32.2,28.7,30.49,East,90,4.5,4.5,87,0.00,OVC,BKN,0.00,WeatherDisplay:10.37,2013-12-22 05:32:00,
2013-12-22 06:37:00,32.2,28.7,30.49,East,90,6.9,6.9,87,0.00,OVC,BKN,0.00,WeatherDisplay:10.37,2013-12-22 05:37:00,
2013-12-22 06:42:00,32.2,28.7,30.49,ESE,112,4.6,4.6,87,0.00,OVC,BKN,0.00,WeatherDisplay:10.37,2013-12-22 05:42:00,
2013-12-22 06:47:00,32.2,28.7,30.49,SE,135,5.8,5.8,87,0.00,OVC,BKN,0.00,WeatherDisplay:10.37,2013-12-22 05:47:00,
2013-12-22 06:52:00,32.2,28.7,30.48,East,90,4.6,4.6,87,0.00,OVC,BKN,0.00,WeatherDisplay:10.37,2013-12-22 05:52:00,
2013-12-22 06:57:00,32.0,28.6,30.48,ESE,112,5.8,5.8,87,0.00,OVC,BKN,0.00,WeatherDisplay:10.37,2013-12-22 05:57:00,
2013-12-22 07:02:00,32.0,28.6,30.48,East,90,6.0,6.0,87,0.00,OVC,BKN,0.00,WeatherDisplay:10.37,2013-12-22 06:02:00,
2013-12-22 07:07:00,32.0,28.6,30.48,East,90,4.6,4.6,87,0.00,OVC,BKN,0.00,WeatherDisplay:10.37,2013-12-22 06:07:00,
2013-12-22 07:12:00,32.0,28.6,30.48,NE,45,3.5,3.5,87,0.00,OVC,BKN,0.00,WeatherDisplay:10.37,2013-12-22 06:12:00,
2013-12-22 07:17:00,32.0,28.6,30.48,East,90,4.6,4.6,87,0.00,BKN,,0.00,WeatherDisplay:10.37,2013-12-22 06:17:00,
2013-12-22 07:22:00,32.0,28.6,30.47,NE,45,3.8,3.8,87,0.00,BKN,,0.00,WeatherDisplay:10.37,2013-12-22 06:22:00,
2013-12-22 07:27:00,32.0,28.6,30.48,East,90,3.5,3.5,87,0.00,BKN,,0.00,WeatherDisplay:10.37,2013-12-22 06:27:00,
2013-12-22 07:32:00,31.8,28.4,30.48,NE,45,3.5,3.5,87,0.00,BKN,,0.00,WeatherDisplay:10.37,2013-12-22 06:32:00,
2013-12-22 07:37:00,31.8,28.4,30.48,East,90,3.5,3.5,87,0.00,BKN,,0.00,WeatherDisplay:10.37,2013-12-22 06:37:00,
2013-12-22 07:42:00,31.8,28.4,30.47,East,90,3.8,3.8,87,0.00,BKN,,0.00,WeatherDisplay:10.37,2013-12-22 06:42:00,
2013-12-22 07:47:00,31.8,28.4,30.48,East,90,3.5,3.5,87,0.00,OVC,BKN,0.00,WeatherDisplay:10.37,2013-12-22 06:47:00,
2013-12-22 07:52:00,31.8,28.4,30.47,East,90,3.8,3.8,87,0.00,OVC,BKN,0.00,WeatherDisplay:10.37,2013-12-22 06:52:00,
2013-12-22 07:57:00,31.6,28.2,30.47,East,90,3.5,3.5,87,0.00,OVC,BKN,0.00,WeatherDisplay:10.37,2013-12-22 06:57:00,
2013-12-22 08:02:00,31.6,28.2,30.47,East,90,3.8,3.8,87,0.00,OVC,BKN,0.00,WeatherDisplay:10.37,2013-12-22 07:02:00,
2013-12-22 08:05:00,31.6,28.2,30.47,East,86,2.0,4.0,87,0.00,OVC,BKN,0.00,WeatherDisplay:10.37,2013-12-22 07:05:00,
2013-12-22 08:10:00,31.6,28.5,30.47,SSW,202,2.3,2.3,88,0.00,OVC,BKN,0.00,WeatherDisplay:10.37,2013-12-22 07:10:00,
2013-12-22 08:15:00,31.6,28.5,30.47,East,90,3.5,3.5,88,0.00,OVC,BKN,0.00,WeatherDisplay:10.37,2013-12-22 07:15:00,
2013-12-22 08:20:00,31.6,28.5,30.47,SE,135,3.5,3.5,88,0.00,OVC,BKN,0.00,WeatherDisplay:10.37,2013-12-22 07:20:00,
2013-12-22 08:25:00,31.6,28.5,30.47,NE,45,3.5,3.5,88,0.00,OVC,BKN,0.00,WeatherDisplay:10.37,2013-12-22 07:25:00,
2013-12-22 08:30:00,31.6,28.5,30.47,ENE,68,2.3,2.3,88,0.00,OVC,BKN,0.00,WeatherDisplay:10.37,2013-12-22 07:30:00,
2013-12-22 08:35:00,31.6,28.5,30.47,ENE,68,2.3,2.3,88,0.00,OVC,BKN,0.00,WeatherDisplay:10.37,2013-12-22 07:35:00,
2013-12-22 08:40:00,31.6,28.5,30.47,East,90,3.5,3.5,88,0.00,OVC,BKN,0.00,WeatherDisplay:10.37,2013-12-22 07:40:00,
2013-12-22 08:45:00,31.6,28.5,30.47,SE,135,3.5,3.5,88,0.00,OVC,BKN,0.00,WeatherDisplay:10.37,2013-12-22 07:45:00,
2013-12-22 08:50:00,31.6,28.5,30.47,East,90,3.5,0.0,88,0.00,OVC,BKN,0.00,WeatherDisplay:10.37,2013-12-22 07:50:00,
2013-12-22 08:56:00,31.6,28.5,30.47,ESE,112,5.8,5.8,88,0.00,OVC,BKN,0.00,WeatherDisplay:10.37,2013-12-22 07:56:00,
2013-12-22 09:01:00,31.6,28.5,30.47,SE,135,5.8,5.8,88,0.00,OVC,BKN,0.00,WeatherDisplay:10.37,2013-12-22 08:01:00,
2013-12-22 09:06:00,31.6,28.5,30.47,SE,135,5.8,5.8,88,0.00,OVC,BKN,0.00,WeatherDisplay:10.37,2013-12-22 08:06:00,
2013-12-22 09:11:00,31.6,28.5,30.47,SE,135,5.8,5.8,88,0.00,OVC,BKN,0.00,WeatherDisplay:10.37,2013-12-22 08:11:00,
2013-12-22 09:16:00,31.6,28.5,30.48,ENE,68,3.5,3.5,88,0.00,OVC,BKN,0.00,WeatherDisplay:10.37,2013-12-22 08:16:00,
2013-12-22 09:21:00,31.6,28.5,30.47,East,90,3.5,3.5,88,0.00,OVC,BKN,0.00,WeatherDisplay:10.37,2013-12-22 08:21:00,
2013-12-22 09:26:00,31.6,28.5,30.48,NE,45,4.6,4.6,88,0.00,OVC,BKN,0.00,WeatherDisplay:10.37,2013-12-22 08:26:00,
2013-12-22 09:32:00,31.8,28.7,30.47,NE,45,4.6,4.6,88,0.00,OVC,BKN,0.00,WeatherDisplay:10.37,2013-12-22 08:32:00,
2013-12-22 09:37:00,31.8,28.7,30.47,SE,135,3.8,3.8,88,0.00,OVC,BKN,0.00,WeatherDisplay:10.37,2013-12-22 08:37:00,
2013-12-22 09:42:00,31.8,28.7,30.48,East,90,4.6,4.6,88,0.00,OVC,BKN,0.00,WeatherDisplay:10.37,2013-12-22 08:42:00,
2013-12-22 09:47:00,31.8,28.7,30.48,NE,45,3.5,3.5,88,0.00,OVC,BKN,0.00,WeatherDisplay:10.37,2013-12-22 08:47:00,
2013-12-22 09:52:00,31.8,28.7,30.47,ENE,68,2.3,2.3,88,0.00,OVC,BKN,0.00,WeatherDisplay:10.37,2013-12-22 08:52:00,
2013-12-22 09:57:00,31.8,28.7,30.47,East,90,3.5,3.5,88,0.00,OVC,BKN,0.00,WeatherDisplay:10.37,2013-12-22 08:57:00,
2013-12-22 10:02:00,31.8,28.7,30.47,SE,135,2.3,2.3,88,0.00,OVC,BKN,0.00,WeatherDisplay:10.37,2013-12-22 09:02:00,
2013-12-22 10:07:00,31.8,28.7,30.47,North,0,2.3,2.3,88,0.00,OVC,BKN,0.00,WeatherDisplay:10.37,2013-12-22 09:07:00,
2013-12-22 10:12:00,32.0,28.6,30.47,NE,45,3.5,0.0,87,0.00,OVC,BKN,0.00,WeatherDisplay:10.37,2013-12-22 09:12:00,
2013-12-22 10:17:00,32.0,28.6,30.46,East,90,2.3,2.3,87,0.00,OVC,BKN,0.00,WeatherDisplay:10.37,2013-12-22 09:17:00,
2013-12-22 10:22:00,32.0,28.3,30.46,NE,45,2.3,2.3,86,0.00,OVC,BKN,0.00,WeatherDisplay:10.37,2013-12-22 09:22:00,
2013-12-22 10:27:00,32.0,28.3,30.46,NE,45,3.5,3.5,86,0.00,OVC,BKN,0.00,WeatherDisplay:10.37,2013-12-22 09:27:00,
2013-12-22 10:32:00,32.0,28.3,30.46,SE,135,3.5,3.5,86,0.00,OVC,BKN,0.00,WeatherDisplay:10.37,2013-12-22 09:32:00,
2013-12-22 10:37:00,32.0,28.3,30.46,NE,45,3.8,3.8,86,0.00,OVC,BKN,0.00,WeatherDisplay:10.37,2013-12-22 09:37:00,
2013-12-22 10:42:00,32.0,28.3,30.46,East,90,3.5,3.5,86,0.00,OVC,BKN,0.00,WeatherDisplay:10.37,2013-12-22 09:42:00,
2013-12-22 10:47:00,32.0,28.3,30.46,East,90,3.5,3.5,86,0.00,OVC,BKN,0.00,WeatherDisplay:10.37,2013-12-22 09:47:00,
2013-12-22 10:52:00,32.0,28.3,30.45,SE,135,3.5,3.5,86,0.00,OVC,BKN,0.00,WeatherDisplay:10.37,2013-12-22 09:52:00,
2013-12-22 10:57:00,32.0,28.3,30.45,NE,45,3.5,3.5,86,0.00,OVC,BKN,0.00,WeatherDisplay:10.37,2013-12-22 09:57:00,
2013-12-22 11:02:00,32.0,28.3,30.45,ENE,68,3.5,3.5,86,0.00,OVC,BKN,0.00,WeatherDisplay:10.37,2013-12-22 10:02:00,
2013-12-22 11:07:00,32.0,28.3,30.44,NE,45,4.6,4.6,86,0.00,OVC,BKN,0.00,WeatherDisplay:10.37,2013-12-22 10:07:00,
2013-12-22 11:12:00,32.0,28.3,30.44,ENE,68,4.6,4.6,86,0.00,OVC,BKN,0.00,WeatherDisplay:10.37,2013-12-22 10:12:00,
2013-12-22 11:17:00,32.0,28.3,30.44,East,90,3.5,3.5,86,0.00,OVC,BKN,0.00,WeatherDisplay:10.37,2013-12-22 10:17:00,
2013-12-22 11:22:00,32.2,28.5,30.44,East,90,3.5,3.5,86,0.00,OVC,BKN,0.00,WeatherDisplay:10.37,2013-12-22 10:22:00,
2013-12-22 11:27:00,32.2,28.5,30.44,East,90,4.5,4.5,86,0.00,OVC,BKN,0.00,WeatherDisplay:10.37,2013-12-22 10:27:00,
2013-12-22 11:32:00,32.2,28.5,30.44,NE,45,3.5,3.5,86,0.00,OVC,BKN,0.00,WeatherDisplay:10.37,2013-12-22 10:32:00,
2013-12-22 11:37:00,32.2,28.5,30.44,ESE,112,5.8,5.8,86,0.00,OVC,BKN,0.00,WeatherDisplay:10.37,2013-12-22 10:37:00,
2013-12-22 11:42:00,32.4,28.6,30.44,East,90,4.6,4.6,86,0.00,OVC,BKN,0.00,WeatherDisplay:10.37,2013-12-22 10:42:00,
2013-12-22 11:47:00,32.4,28.6,30.44,NE,45,4.6,4.6,86,0.00,OVC,BKN,0.00,WeatherDisplay:10.37,2013-12-22 10:47:00,
2013-12-22 11:52:00,32.4,28.6,30.43,East,90,5.8,5.8,86,0.00,OVC,BKN,0.00,WeatherDisplay:10.37,2013-12-22 10:52:00,
2013-12-22 11:57:00,32.4,28.6,30.43,ENE,68,8.1,8.1,86,0.00,OVC,BKN,0.00,WeatherDisplay:10.37,2013-12-22 10:57:00,
2013-12-22 12:02:00,32.2,28.5,30.43,East,90,6.0,6.0,86,0.00,OVC,BKN,0.00,WeatherDisplay:10.37,2013-12-22 11:02:00,
2013-12-22 12:07:00,32.2,28.2,30.42,NE,45,6.0,6.0,85,0.00,OVC,BKN,0.00,WeatherDisplay:10.37,2013-12-22 11:07:00,
2013-12-22 12:12:00,32.2,28.2,30.42,NE,45,6.0,6.0,85,0.00,OVC,BKN,0.00,WeatherDisplay:10.37,2013-12-22 11:12:00,
2013-12-22 12:17:00,32.2,28.2,30.42,SE,135,7.6,7.6,85,0.00,OVC,BKN,0.00,WeatherDisplay:10.37,2013-12-22 11:17:00,
2013-12-22 12:22:00,32.0,28.3,30.42,NE,45,8.1,8.1,86,0.00,OVC,BKN,0.00,WeatherDisplay:10.37,2013-12-22 11:22:00,
2013-12-22 12:27:00,32.0,28.3,30.42,East,90,8.1,8.1,86,0.00,OVC,BKN,0.00,WeatherDisplay:10.37,2013-12-22 11:27:00,
2013-12-22 12:32:00,32.0,28.3,30.42,East,90,6.9,6.9,86,0.00,OVC,BKN,0.00,WeatherDisplay:10.37,2013-12-22 11:32:00,
2013-12-22 12:37:00,32.0,28.3,30.41,North,0,5.8,5.8,86,0.00,OVC,BKN,0.00,WeatherDisplay:10.37,2013-12-22 11:37:00,
2013-12-22 12:42:00,32.0,28.3,30.41,North,0,5.8,5.8,86,0.00,OVC,BKN,0.00,WeatherDisplay:10.37,2013-12-22 11:42:00,
2013-12-22 12:47:00,32.0,28.3,30.41,NE,45,5.8,5.8,86,0.00,BKN,,0.00,WeatherDisplay:10.37,2013-12-22 11:47:00,
2013-12-22 12:52:00,32.0,28.3,30.41,ENE,68,4.6,4.6,86,0.00,BKN,,0.00,WeatherDisplay:10.37,2013-12-22 11:52:00,
2013-12-22 12:57:00,32.0,28.3,30.41,West,270,5.8,5.8,86,0.00,BKN,,0.00,WeatherDisplay:10.37,2013-12-22 11:57:00,
2013-12-22 13:02:00,32.0,28.3,30.40,NE,45,8.1,8.1,86,0.00,BKN,,0.00,WeatherDisplay:10.37,2013-12-22 12:02:00,
2013-12-22 13:07:00,32.0,28.3,30.40,NE,45,5.8,5.8,86,0.00,BKN,,0.00,WeatherDisplay:10.37,2013-12-22 12:07:00,
2013-12-22 13:12:00,31.8,28.4,30.41,NE,45,6.9,6.9,87,0.00,BKN,,0.00,WeatherDisplay:10.37,2013-12-22 12:12:00,
2013-12-22 13:17:00,31.8,28.4,30.40,NE,45,5.8,5.8,87,0.00,OVC,BKN,0.00,WeatherDisplay:10.37,2013-12-22 12:17:00,
2013-12-22 13:22:00,31.8,28.4,30.40,NE,45,6.0,6.0,87,0.00,OVC,BKN,0.00,WeatherDisplay:10.37,2013-12-22 12:22:00,
2013-12-22 13:27:00,31.8,28.4,30.40,NE,45,8.1,8.1,87,0.00,OVC,BKN,0.00,WeatherDisplay:10.37,2013-12-22 12:27:00,
2013-12-22 13:32:00,31.8,28.4,30.40,East,90,6.9,6.9,87,0.00,OVC,BKN,0.00,WeatherDisplay:10.37,2013-12-22 12:32:00,
2013-12-22 13:37:00,31.8,28.4,30.40,East,90,5.8,5.8,87,0.00,OVC,BKN,0.00,WeatherDisplay:10.37,2013-12-22 12:37:00,
2013-12-22 13:42:00,32.0,28.3,30.40,North,0,5.8,5.8,86,0.00,OVC,BKN,0.00,WeatherDisplay:10.37,2013-12-22 12:42:00,
2013-12-22 13:48:00,31.8,28.4,30.40,East,90,6.9,6.9,87,0.00,OVC,BKN,0.00,WeatherDisplay:10.37,2013-12-22 12:48:00,
2013-12-22 13:53:00,31.8,28.4,30.39,NE,45,5.8,5.8,87,0.00,OVC,BKN,0.00,WeatherDisplay:10.37,2013-12-22 12:53:00,
2013-12-22 13:58:00,31.8,28.4,30.39,NE,45,8.1,8.1,87,0.00,OVC,BKN,0.00,WeatherDisplay:10.37,2013-12-22 12:58:00,
2013-12-22 14:03:00,31.8,28.4,30.39,East,90,5.8,5.8,87,0.00,OVC,BKN,0.00,WeatherDisplay:10.37,2013-12-22 13:03:00,
2013-12-22 14:08:00,32.0,28.3,30.39,NNE,22,5.8,5.8,86,0.00,OVC,BKN,0.00,WeatherDisplay:10.37,2013-12-22 13:08:00,
2013-12-22 14:13:00,32.0,28.3,30.39,East,90,5.8,5.8,86,0.00,OVC,BKN,0.00,WeatherDisplay:10.37,2013-12-22 13:13:00,
2013-12-22 14:18:00,32.0,28.3,30.38,ENE,68,5.8,5.8,86,0.00,OVC,BKN,0.00,WeatherDisplay:10.37,2013-12-22 13:18:00,
2013-12-22 14:23:00,32.0,28.3,30.38,SE,135,5.8,5.8,86,0.00,OVC,BKN,0.00,WeatherDisplay:10.37,2013-12-22 13:23:00,
2013-12-22 14:28:00,32.0,28.3,30.38,East,90,5.8,5.8,86,0.00,OVC,BKN,0.00,WeatherDisplay:10.37,2013-12-22 13:28:00,
2013-12-22 14:33:00,32.0,28.3,30.38,East,90,5.8,5.8,86,0.00,OVC,BKN,0.00,WeatherDisplay:10.37,2013-12-22 13:33:00,
2013-12-22 14:38:00,32.0,28.3,30.38,SE,135,5.8,5.8,86,0.00,OVC,BKN,0.00,WeatherDisplay:10.37,2013-12-22 13:38:00,
2013-12-22 14:43:00,32.0,28.3,30.38,East,90,3.8,3.8,86,0.00,OVC,BKN,0.00,WeatherDisplay:10.37,2013-12-22 13:43:00,
2013-12-22 14:48:00,32.0,28.3,30.38,East,90,4.6,4.6,86,0.00,OVC,BKN,0.00,WeatherDisplay:10.37,2013-12-22 13:48:00,
2013-12-22 14:53:00,32.0,28.3,30.38,SE,135,4.6,4.6,86,0.00,OVC,BKN,0.00,WeatherDisplay:10.37,2013-12-22 13:53:00,
2013-12-22 14:58:00,32.2,28.5,30.38,East,90,3.8,3.8,86,0.00,OVC,BKN,0.00,WeatherDisplay:10.37,2013-12-22 13:58:00,
2013-12-22 15:03:00,32.2,28.5,30.38,NE,45,3.8,3.8,86,0.00,OVC,BKN,0.00,WeatherDisplay:10.37,2013-12-22 14:03:00,
2013-12-22 15:08:00,32.2,28.5,30.38,WSW,248,3.5,3.5,86,0.00,OVC,BKN,0.00,WeatherDisplay:10.37,2013-12-22 14:08:00,
2013-12-22 15:13:00,32.2,28.5,30.37,NE,45,5.4,5.4,86,0.00,OVC,BKN,0.00,WeatherDisplay:10.37,2013-12-22 14:13:00,
2013-12-22 15:18:00,32.2,28.5,30.37,NE,45,4.6,4.6,86,0.00,OVC,BKN,0.00,WeatherDisplay:10.37,2013-12-22 14:18:00,
2013-12-22 15:23:00,32.2,28.5,30.38,NE,45,3.8,3.8,86,0.00,OVC,BKN,0.00,WeatherDisplay:10.37,2013-12-22 14:23:00,
2013-12-22 15:28:00,32.2,28.5,30.37,SE,135,5.8,5.8,86,0.00,OVC,BKN,0.00,WeatherDisplay:10.37,2013-12-22 14:28:00,
2013-12-22 15:33:00,32.2,28.5,30.37,NE,45,3.8,3.8,86,0.00,OVC,BKN,0.00,WeatherDisplay:10.37,2013-12-22 14:33:00,
2013-12-22 15:38:00,32.2,28.5,30.37,East,90,5.8,5.8,86,0.00,OVC,BKN,0.00,WeatherDisplay:10.37,2013-12-22 14:38:00,
2013-12-22 15:43:00,32.2,28.5,30.37,NE,45,4.6,4.6,86,0.00,OVC,BKN,0.00,WeatherDisplay:10.37,2013-12-22 14:43:00,
2013-12-22 15:48:00,32.2,28.5,30.37,NE,45,3.5,3.5,86,0.00,OVC,BKN,0.00,WeatherDisplay:10.37,2013-12-22 14:48:00,
2013-12-22 15:53:00,32.2,28.5,30.37,NE,45,4.6,4.6,86,0.00,OVC,BKN,0.00,WeatherDisplay:10.37,2013-12-22 14:53:00,
2013-12-22 15:58:00,32.2,28.5,30.37,East,90,3.5,0.0,86,0.00,OVC,BKN,0.00,WeatherDisplay:10.37,2013-12-22 14:58:00,
2013-12-22 16:03:00,32.2,28.5,30.38,North,0,2.3,2.3,86,0.00,OVC,BKN,0.00,WeatherDisplay:10.37,2013-12-22 15:03:00,
2013-12-22 16:08:00,32.2,28.5,30.38,NE,45,3.5,3.5,86,0.00,OVC,BKN,0.00,WeatherDisplay:10.37,2013-12-22 15:08:00,
2013-12-22 16:13:00,32.2,28.5,30.38,NE,45,3.8,3.8,86,0.00,OVC,BKN,0.00,WeatherDisplay:10.37,2013-12-22 15:13:00,
2013-12-22 16:18:00,32.2,28.5,30.37,East,90,3.1,3.1,86,0.00,OVC,BKN,0.00,WeatherDisplay:10.37,2013-12-22 15:18:00,
2013-12-22 16:23:00,32.2,28.5,30.37,ENE,68,4.6,4.6,86,0.00,OVC,BKN,0.00,WeatherDisplay:10.37,2013-12-22 15:23:00,
2013-12-22 16:28:00,32.2,28.5,30.37,East,90,4.6,4.6,86,0.00,OVC,BKN,0.00,WeatherDisplay:10.37,2013-12-22 15:28:00,
2013-12-22 16:33:00,32.2,28.5,30.37,East,90,3.5,3.5,86,0.00,OVC,BKN,0.00,WeatherDisplay:10.37,2013-12-22 15:33:00,
2013-12-22 16:38:00,32.2,28.5,30.38,NE,45,3.5,3.5,86,0.00,OVC,BKN,0.00,WeatherDisplay:10.37,2013-12-22 15:38:00,
2013-12-22 16:43:00,32.2,28.5,30.38,SW,225,4.6,4.6,86,0.00,OVC,BKN,0.00,WeatherDisplay:10.37,2013-12-22 15:43:00,
2013-12-22 16:48:00,32.2,28.5,30.38,NNE,22,4.6,4.6,86,0.00,OVC,BKN,0.00,WeatherDisplay:10.37,2013-12-22 15:48:00,
2013-12-22 16:53:00,32.2,28.5,30.38,NE,45,4.6,4.6,86,0.00,OVC,BKN,0.00,WeatherDisplay:10.37,2013-12-22 15:53:00,
2013-12-22 16:58:00,32.2,28.5,30.38,NE,45,4.6,4.6,86,0.00,OVC,BKN,0.00,WeatherDisplay:10.37,2013-12-22 15:58:00,
2013-12-22 17:03:00,32.2,28.5,30.38,NE,45,4.6,4.6,86,0.00,OVC,BKN,0.00,WeatherDisplay:10.37,2013-12-22 16:03:00,
2013-12-22 17:08:00,32.2,28.5,30.38,NE,45,3.5,3.5,86,0.00,OVC,BKN,0.00,WeatherDisplay:10.37,2013-12-22 16:08:00,
2013-12-22 17:13:00,32.2,28.5,30.38,NE,45,5.8,5.8,86,0.00,OVC,BKN,0.00,WeatherDisplay:10.37,2013-12-22 16:13:00,
2013-12-22 17:18:00,32.4,28.6,30.38,NE,45,4.6,4.6,86,0.00,OVC,BKN,0.00,WeatherDisplay:10.37,2013-12-22 16:18:00,
2013-12-22 17:23:00,32.4,28.6,30.38,NE,45,3.8,3.8,86,0.00,OVC,BKN,0.00,WeatherDisplay:10.37,2013-12-22 16:23:00,
2013-12-22 17:28:00,32.4,28.6,30.38,NE,45,4.6,4.6,86,0.00,OVC,BKN,0.00,WeatherDisplay:10.37,2013-12-22 16:28:00,
2013-12-22 17:33:00,32.4,28.6,30.38,NE,45,3.8,3.8,86,0.00,OVC,BKN,0.00,WeatherDisplay:10.37,2013-12-22 16:33:00,
2013-12-22 17:38:00,32.4,28.6,30.38,NNE,22,3.8,3.8,86,0.00,OVC,BKN,0.00,WeatherDisplay:10.37,2013-12-22 16:38:00,
2013-12-22 17:43:00,32.4,28.6,30.38,NE,45,3.8,3.8,86,0.00,OVC,BKN,0.00,WeatherDisplay:10.37,2013-12-22 16:43:00,
2013-12-22 17:48:00,32.4,28.6,30.38,North,0,3.5,3.5,86,0.00,OVC,BKN,0.00,WeatherDisplay:10.37,2013-12-22 16:48:00,
2013-12-22 17:53:00,32.4,28.6,30.38,North,0,3.5,3.5,86,0.00,OVC,BKN,0.00,WeatherDisplay:10.37,2013-12-22 16:53:00,
2013-12-22 17:58:00,32.4,28.6,30.38,NE,45,2.3,2.3,86,0.00,OVC,BKN,0.00,WeatherDisplay:10.37,2013-12-22 16:58:00,
2013-12-22 18:03:00,32.4,28.6,30.37,NNE,22,3.8,3.8,86,0.00,OVC,BKN,0.00,WeatherDisplay:10.37,2013-12-22 17:03:00,
2013-12-22 18:08:00,32.4,28.6,30.36,NE,45,5.4,5.4,86,0.00,OVC,BKN,0.00,WeatherDisplay:10.37,2013-12-22 17:08:00,
2013-12-22 18:13:00,32.4,28.6,30.36,NE,45,5.8,5.8,86,0.00,OVC,BKN,0.00,WeatherDisplay:10.37,2013-12-22 17:13:00,
2013-12-22 18:18:00,32.4,28.6,30.36,NE,45,5.8,5.8,86,0.00,OVC,BKN,0.00,WeatherDisplay:10.37,2013-12-22 17:18:00,
2013-12-22 18:23:00,32.5,28.8,30.37,NE,45,5.4,5.4,86,0.00,OVC,BKN,0.00,WeatherDisplay:10.37,2013-12-22 17:23:00,
2013-12-22 18:28:00,32.5,28.8,30.37,North,0,3.5,3.5,86,0.00,OVC,BKN,0.00,WeatherDisplay:10.37,2013-12-22 17:28:00,
2013-12-22 18:33:00,32.5,28.8,30.37,North,0,3.5,3.5,86,0.00,OVC,BKN,0.00,WeatherDisplay:10.37,2013-12-22 17:33:00,
2013-12-22 18:38:00,32.5,28.8,30.37,North,0,3.5,3.5,86,0.00,OVC,BKN,0.00,WeatherDisplay:10.37,2013-12-22 17:38:00,
2013-12-22 18:43:00,32.5,28.8,30.36,NW,315,3.5,3.5,86,0.00,OVC,BKN,0.00,WeatherDisplay:10.37,2013-12-22 17:43:00,
2013-12-22 18:48:00,32.5,28.8,30.36,North,0,3.5,3.5,86,0.00,OVC,BKN,0.00,WeatherDisplay:10.37,2013-12-22 17:48:00,
2013-12-22 18:53:00,32.5,28.8,30.36,NW,315,6.9,6.9,86,0.00,OVC,BKN,0.00,WeatherDisplay:10.37,2013-12-22 17:53:00,
2013-12-22 18:58:00,32.5,28.8,30.37,West,270,3.5,3.5,86,0.00,OVC,BKN,0.00,WeatherDisplay:10.37,2013-12-22 17:58:00,
2013-12-22 19:03:00,32.5,28.8,30.36,North,0,3.5,3.5,86,0.00,OVC,BKN,0.00,WeatherDisplay:10.37,2013-12-22 18:03:00,
2013-12-22 19:08:00,32.5,28.8,30.35,North,0,3.5,3.5,86,0.00,OVC,BKN,0.00,WeatherDisplay:10.37,2013-12-22 18:08:00,
2013-12-22 19:13:00,32.5,28.8,30.35,East,90,2.3,2.3,86,0.00,OVC,BKN,0.00,WeatherDisplay:10.37,2013-12-22 18:13:00,
2013-12-22 19:18:00,32.5,28.8,30.34,SE,135,4.6,4.6,86,0.00,BKN,,0.00,WeatherDisplay:10.37,2013-12-22 18:18:00,
2013-12-22 19:23:00,32.5,29.1,30.34,SE,135,3.5,3.5,87,0.00,BKN,,0.00,WeatherDisplay:10.37,2013-12-22 18:23:00,
2013-12-22 19:28:00,32.5,29.1,30.34,NW,315,2.3,0.0,87,0.00,BKN,,0.00,WeatherDisplay:10.37,2013-12-22 18:28:00,
2013-12-22 19:33:00,32.5,29.1,30.34,West,270,0.7,0.0,87,0.00,BKN,,0.00,WeatherDisplay:10.37,2013-12-22 18:33:00,
2013-12-22 19:38:00,32.5,29.1,30.35,NW,315,2.3,2.3,87,0.00,BKN,,0.00,WeatherDisplay:10.37,2013-12-22 18:38:00,
2013-12-22 19:43:00,32.5,29.1,30.35,NW,315,2.3,2.3,87,0.00,BKN,,0.00,WeatherDisplay:10.37,2013-12-22 18:43:00,
2013-12-22 19:48:00,32.5,29.1,30.35,NW,315,3.8,3.8,87,0.00,BKN,,0.00,WeatherDisplay:10.37,2013-12-22 18:48:00,
2013-12-22 19:53:00,32.5,29.1,30.34,North,0,2.3,2.3,87,0.00,BKN,,0.00,WeatherDisplay:10.37,2013-12-22 18:53:00,
2013-12-22 19:58:00,32.5,29.1,30.34,North,0,3.5,3.5,87,0.00,BKN,,0.00,WeatherDisplay:10.37,2013-12-22 18:58:00,
2013-12-22 20:03:00,32.5,29.1,30.35,East,90,1.6,1.6,87,0.00,BKN,,0.00,WeatherDisplay:10.37,2013-12-22 19:03:00,
2013-12-22 20:08:00,32.5,29.1,30.34,East,90,1.2,0.0,87,0.00,BKN,,0.00,WeatherDisplay:10.37,2013-12-22 19:08:00,
2013-12-22 20:13:00,32.7,29.3,30.34,North,0,3.5,3.5,87,0.00,BKN,,0.00,WeatherDisplay:10.37,2013-12-22 19:13:00,
2013-12-22 20:18:00,32.7,29.3,30.34,NNW,338,3.8,3.8,87,0.00,BKN,,0.00,WeatherDisplay:10.37,2013-12-22 19:18:00,
2013-12-22 20:23:00,32.7,29.3,30.34,NW,315,3.5,3.5,87,0.00,BKN,,0.00,WeatherDisplay:10.37,2013-12-22 19:23:00,
2013-12-22 20:28:00,32.7,29.3,30.34,NE,45,2.3,2.3,87,0.00,BKN,,0.00,WeatherDisplay:10.37,2013-12-22 19:28:00,
2013-12-22 20:33:00,32.7,29.3,30.34,North,0,3.5,3.5,87,0.00,BKN,,0.00,WeatherDisplay:10.37,2013-12-22 19:33:00,
2013-12-22 20:38:00,32.7,29.3,30.33,NE,45,3.5,3.5,87,0.00,BKN,,0.00,WeatherDisplay:10.37,2013-12-22 19:38:00,
2013-12-22 20:43:00,32.7,29.3,30.34,North,0,3.8,3.8,87,0.00,BKN,,0.00,WeatherDisplay:10.37,2013-12-22 19:43:00,
2013-12-22 20:48:00,32.7,29.3,30.34,NE,45,2.3,2.3,87,0.00,BKN,,0.00,WeatherDisplay:10.37,2013-12-22 19:48:00,
2013-12-22 20:53:00,32.7,29.3,30.33,North,0,3.8,3.8,87,0.00,BKN,,0.00,WeatherDisplay:10.37,2013-12-22 19:53:00,
2013-12-22 20:58:00,32.7,29.3,30.33,North,0,4.5,4.5,87,0.00,BKN,,0.00,WeatherDisplay:10.37,2013-12-22 19:58:00,
2013-12-22 21:03:00,32.9,29.5,30.33,NW,315,3.8,3.8,87,0.00,BKN,,0.00,WeatherDisplay:10.37,2013-12-22 20:03:00,
2013-12-22 21:08:00,32.9,29.5,30.33,North,0,4.6,4.6,87,0.00,BKN,,0.00,WeatherDisplay:10.37,2013-12-22 20:08:00,
2013-12-22 21:13:00,32.9,29.5,30.33,North,0,4.6,4.6,87,0.00,BKN,,0.00,WeatherDisplay:10.37,2013-12-22 20:13:00,
2013-12-22 21:18:00,32.9,29.5,30.33,NE,45,5.8,5.8,87,0.00,BKN,,0.00,WeatherDisplay:10.37,2013-12-22 20:18:00,
2013-12-22 21:23:00,32.9,29.5,30.33,NE,45,4.6,4.6,87,0.00,BKN,,0.00,WeatherDisplay:10.37,2013-12-22 20:23:00,
2013-12-22 21:28:00,32.9,29.5,30.33,NE,45,4.5,4.5,87,0.00,BKN,,0.00,WeatherDisplay:10.37,2013-12-22 20:28:00,
2013-12-22 21:33:00,32.9,29.5,30.33,NE,45,4.5,4.5,87,0.00,BKN,,0.00,WeatherDisplay:10.37,2013-12-22 20:33:00,
2013-12-22 21:38:00,32.9,29.5,30.33,NW,315,5.8,5.8,87,0.00,BKN,,0.00,WeatherDisplay:10.37,2013-12-22 20:38:00,
2013-12-22 21:43:00,33.1,29.6,30.33,North,0,4.6,4.6,87,0.00,BKN,,0.00,WeatherDisplay:10.37,2013-12-22 20:43:00,
2013-12-22 21:48:00,33.1,29.6,30.33,North,0,4.6,4.6,87,0.00,BKN,,0.00,WeatherDisplay:10.37,2013-12-22 20:48:00,
2013-12-22 21:53:00,33.1,29.6,30.33,North,0,3.5,3.5,87,0.00,BKN,,0.00,WeatherDisplay:10.37,2013-12-22 20:53:00,
2013-12-22 21:58:00,33.1,29.6,30.33,NE,45,3.5,3.5,87,0.00,BKN,,0.00,WeatherDisplay:10.37,2013-12-22 20:58:00,
2013-12-22 22:03:00,33.1,29.6,30.32,NE,45,2.3,2.3,87,0.00,BKN,,0.00,WeatherDisplay:10.37,2013-12-22 21:03:00,
2013-12-22 22:08:00,33.1,29.6,30.33,NE,45,2.3,2.3,87,0.00,BKN,,0.00,WeatherDisplay:10.37,2013-12-22 21:08:00,
2013-12-22 22:13:00,33.1,29.6,30.32,North,0,4.6,4.6,87,0.00,BKN,,0.00,WeatherDisplay:10.37,2013-12-22 21:13:00,
2013-12-22 22:18:00,33.1,29.6,30.32,NE,45,3.5,3.5,87,0.00,BKN,,0.00,WeatherDisplay:10.37,2013-12-22 21:18:00,
2013-12-22 22:23:00,33.1,29.6,30.32,North,0,3.5,3.5,87,0.00,BKN,,0.00,WeatherDisplay:10.37,2013-12-22 21:23:00,
2013-12-22 22:28:00,33.1,29.6,30.32,North,0,3.5,3.5,87,0.00,BKN,,0.00,WeatherDisplay:10.37,2013-12-22 21:28:00,
2013-12-22 22:33:00,33.1,29.6,30.32,North,0,3.8,3.8,87,0.00,BKN,,0.00,WeatherDisplay:10.37,2013-12-22 21:33:00,
2013-12-22 22:38:00,33.1,29.6,30.32,North,0,3.8,3.8,87,0.00,BKN,,0.00,WeatherDisplay:10.37,2013-12-22 21:38:00,
2013-12-22 22:43:00,33.1,29.6,30.32,NNW,338,3.5,3.5,87,0.00,BKN,,0.00,WeatherDisplay:10.37,2013-12-22 21:43:00,
2013-12-22 22:48:00,33.1,29.6,30.32,North,0,3.5,3.5,87,0.00,OVC,BKN,0.00,WeatherDisplay:10.37,2013-12-22 21:48:00,
2013-12-22 22:53:00,33.1,29.6,30.32,North,0,3.5,3.5,87,0.00,OVC,BKN,0.00,WeatherDisplay:10.37,2013-12-22 21:53:00,
2013-12-22 22:58:00,33.1,29.6,30.32,North,0,4.5,4.5,87,0.00,OVC,BKN,0.00,WeatherDisplay:10.37,2013-12-22 21:58:00,
2013-12-22 23:03:00,33.1,29.6,30.32,North,0,3.8,3.8,87,0.00,OVC,BKN,0.00,WeatherDisplay:10.37,2013-12-22 22:03:00,
2013-12-22 23:08:00,33.1,29.6,30.32,NE,45,3.5,3.5,87,0.00,OVC,BKN,0.00,WeatherDisplay:10.37,2013-12-22 22:08:00,
2013-12-22 23:13:00,33.1,29.6,30.31,North,0,3.8,3.8,87,0.00,OVC,BKN,0.00,WeatherDisplay:10.37,2013-12-22 22:13:00,
2013-12-22 23:18:00,33.3,29.8,30.31,NW,315,3.8,3.8,87,0.00,OVC,BKN,0.00,WeatherDisplay:10.37,2013-12-22 22:18:00,
2013-12-22 23:23:00,33.3,29.8,30.31,NNE,22,3.5,3.5,87,0.00,OVC,BKN,0.00,WeatherDisplay:10.37,2013-12-22 22:23:00,
2013-12-22 23:28:00,33.3,29.8,30.31,North,0,3.8,3.8,87,0.00,OVC,BKN,0.00,WeatherDisplay:10.37,2013-12-22 22:28:00,
2013-12-22 23:33:00,33.3,29.8,30.30,NNW,338,4.5,4.5,87,0.00,OVC,BKN,0.00,WeatherDisplay:10.37,2013-12-22 22:33:00,
2013-12-22 23:38:00,33.3,29.8,30.30,North,0,4.6,4.6,87,0.00,OVC,BKN,0.00,WeatherDisplay:10.37,2013-12-22 22:38:00,
2013-12-22 23:43:00,33.3,29.8,30.31,North,0,4.6,4.6,87,0.00,OVC,BKN,0.00,WeatherDisplay:10.37,2013-12-22 22:43:00,
2013-12-22 23:48:00,33.3,29.8,30.31,North,0,3.8,3.8,87,0.00,OVC,BKN,0.00,WeatherDisplay:10.37,2013-12-22 22:48:00,
2013-12-22 23:53:00,33.4,30.0,30.31,North,0,4.5,4.5,87,0.00,OVC,BKN,0.00,WeatherDisplay:10.37,2013-12-22 22:53:00,
2013-12-22 23:58:00,33.4,30.0,30.30,NE,45,3.8,3.8,87,0.00,OVC,BKN,0.00,WeatherDisplay:10.37,2013-12-22 22:58:00,